METAR Data
IDs: Format: Raw Decoded Include TAF

Data at: 1737 UTC 09 Dec 2019

METAR for:KOPN (Thomaston/Upson Cnty, GA, US)
Text:KOPN 091715Z AUTO 00000KT 2 1/2SM BR OVC003 13/13 A3004 RMK AO2
Temperature: 13.0°C ( 55°F)
Dewpoint: 13.0°C ( 55°F) [RH = 100%]
Pressure (altimeter):30.04 inches Hg (1017.4 mb)
Winds:calm
Visibility: 2.50 sm ( 4.02 km)
Ceiling:300 feet AGL
Clouds: overcast cloud deck at 300 feet AGL
Weather:BR (mist)
QC Flag:automated observation with no human augmentation

TAF for:KOPN (Thomaston/Upson Cnty, GA, US)
Text:No data found